sensor_id;sensor_type;location;lat;lon;timestamp;temperature;humidity
19970;DHT22;10146;47.754;9.566;2022-08-19T00:01:30;18.40;99.90
19970;DHT22;10146;47.754;9.566;2022-08-19T00:03:57;18.40;99.90
19970;DHT22;10146;47.754;9.566;2022-08-19T00:06:23;18.40;99.90
19970;DHT22;10146;47.754;9.566;2022-08-19T00:08:49;18.40;99.90
19970;DHT22;10146;47.754;9.566;2022-08-19T00:11:17;18.40;99.90
19970;DHT22;10146;47.754;9.566;2022-08-19T00:13:43;18.40;99.90
19970;DHT22;10146;47.754;9.566;2022-08-19T00:16:08;18.30;99.90
19970;DHT22;10146;47.754;9.566;2022-08-19T00:18:34;18.40;99.90
19970;DHT22;10146;47.754;9.566;2022-08-19T00:21:01;18.40;99.90
19970;DHT22;10146;47.754;9.566;2022-08-19T00:23:27;18.50;99.90
19970;DHT22;10146;47.754;9.566;2022-08-19T00:25:53;18.50;99.90
19970;DHT22;10146;47.754;9.566;2022-08-19T00:28:19;18.50;99.90
19970;DHT22;10146;47.754;9.566;2022-08-19T00:30:46;18.50;99.90
19970;DHT22;10146;47.754;9.566;2022-08-19T00:33:11;18.50;99.90
19970;DHT22;10146;47.754;9.566;2022-08-19T00:35:37;18.40;99.90
19970;DHT22;10146;47.754;9.566;2022-08-19T00:38:04;18.50;99.90
19970;DHT22;10146;47.754;9.566;2022-08-19T00:40:31;18.40;99.90
19970;DHT22;10146;47.754;9.566;2022-08-19T00:42:56;18.50;99.90
19970;DHT22;10146;47.754;9.566;2022-08-19T00:45:24;18.50;99.90
19970;DHT22;10146;47.754;9.566;2022-08-19T00:47:51;18.50;99.90
19970;DHT22;10146;47.754;9.566;2022-08-19T00:50:20;18.50;99.90
19970;DHT22;10146;47.754;9.566;2022-08-19T00:52:49;18.50;99.90
19970;DHT22;10146;47.754;9.566;2022-08-19T00:55:19;18.50;99.90
19970;DHT22;10146;47.754;9.566;2022-08-19T00:57:53;18.40;99.90
19970;DHT22;10146;47.754;9.566;2022-08-19T01:00:22;18.40;99.90
19970;DHT22;10146;47.754;9.566;2022-08-19T01:02:48;18.30;99.90
19970;DHT22;10146;47.754;9.566;2022-08-19T01:05:21;18.30;99.90
19970;DHT22;10146;47.754;9.566;2022-08-19T01:07:48;18.30;99.90
19970;DHT22;10146;47.754;9.566;2022-08-19T01:10:20;18.20;99.90
19970;DHT22;10146;47.754;9.566;2022-08-19T01:12:46;18.20;99.90
19970;DHT22;10146;47.754;9.566;2022-08-19T01:15:16;18.20;99.90
19970;DHT22;10146;47.754;9.566;2022-08-19T01:17:43;18.10;99.90
19970;DHT22;10146;47.754;9.566;2022-08-19T01:20:12;18.10;99.90
19970;DHT22;10146;47.754;9.566;2022-08-19T01:22:44;18.10;99.90
19970;DHT22;10146;47.754;9.566;2022-08-19T01:25:13;18.10;99.90
19970;DHT22;10146;47.754;9.566;2022-08-19T01:27:42;18.10;99.90
19970;DHT22;10146;47.754;9.566;2022-08-19T01:30:10;18.10;99.90
19970;DHT22;10146;47.754;9.566;2022-08-19T01:32:36;18.10;99.90
19970;DHT22;10146;47.754;9.566;2022-08-19T01:35:04;18.20;99.90
19970;DHT22;10146;47.754;9.566;2022-08-19T01:37:40;18.20;99.90
19970;DHT22;10146;47.754;9.566;2022-08-19T01:40:07;18.10;99.90
19970;DHT22;10146;47.754;9.566;2022-08-19T01:42:33;18.10;99.90
19970;DHT22;10146;47.754;9.566;2022-08-19T01:45:00;18.00;99.90
19970;DHT22;10146;47.754;9.566;2022-08-19T01:47:26;18.00;99.90
19970;DHT22;10146;47.754;9.566;2022-08-19T01:49:52;18.00;99.90
19970;DHT22;10146;47.754;9.566;2022-08-19T01:52:17;18.00;99.90
19970;DHT22;10146;47.754;9.566;2022-08-19T01:54:43;18.00;99.90
19970;DHT22;10146;47.754;9.566;2022-08-19T01:57:11;17.90;99.90
19970;DHT22;10146;47.754;9.566;2022-08-19T01:59:38;17.90;99.90
19970;DHT22;10146;47.754;9.566;2022-08-19T02:02:05;17.90;99.90
19970;DHT22;10146;47.754;9.566;2022-08-19T02:04:35;17.90;99.90
19970;DHT22;10146;47.754;9.566;2022-08-19T02:07:01;17.90;99.90
19970;DHT22;10146;47.754;9.566;2022-08-19T02:09:26;17.90;99.90
19970;DHT22;10146;47.754;9.566;2022-08-19T02:11:52;17.90;99.90
19970;DHT22;10146;47.754;9.566;2022-08-19T02:14:18;17.80;99.90
19970;DHT22;10146;47.754;9.566;2022-08-19T02:16:44;17.80;99.90
19970;DHT22;10146;47.754;9.566;2022-08-19T02:19:10;17.70;99.90
19970;DHT22;10146;47.754;9.566;2022-08-19T02:21:36;17.60;99.90
19970;DHT22;10146;47.754;9.566;2022-08-19T02:24:01;17.60;99.90
19970;DHT22;10146;47.754;9.566;2022-08-19T02:26:28;17.60;99.90
19970;DHT22;10146;47.754;9.566;2022-08-19T02:28:54;17.60;99.90
19970;DHT22;10146;47.754;9.566;2022-08-19T02:31:22;17.70;99.90
19970;DHT22;10146;47.754;9.566;2022-08-19T02:33:48;17.70;99.90
19970;DHT22;10146;47.754;9.566;2022-08-19T02:36:16;17.70;99.90
19970;DHT22;10146;47.754;9.566;2022-08-19T02:38:42;17.70;99.90
19970;DHT22;10146;47.754;9.566;2022-08-19T02:41:14;17.70;99.90
19970;DHT22;10146;47.754;9.566;2022-08-19T02:43:40;17.70;99.90
19970;DHT22;10146;47.754;9.566;2022-08-19T02:46:22;17.60;99.90
19970;DHT22;10146;47.754;9.566;2022-08-19T02:48:50;17.60;99.90
19970;DHT22;10146;47.754;9.566;2022-08-19T02:51:21;17.60;99.90
19970;DHT22;10146;47.754;9.566;2022-08-19T02:53:48;17.60;99.90
19970;DHT22;10146;47.754;9.566;2022-08-19T02:56:13;17.60;99.90
19970;DHT22;10146;47.754;9.566;2022-08-19T02:58:39;17.60;99.90
19970;DHT22;10146;47.754;9.566;2022-08-19T03:01:05;17.60;99.90
19970;DHT22;10146;47.754;9.566;2022-08-19T03:03:31;17.60;99.90
19970;DHT22;10146;47.754;9.566;2022-08-19T03:06:12;17.60;99.90
19970;DHT22;10146;47.754;9.566;2022-08-19T03:08:41;17.60;99.90
19970;DHT22;10146;47.754;9.566;2022-08-19T03:11:19;17.60;99.90
19970;DHT22;10146;47.754;9.566;2022-08-19T03:13:45;17.50;99.90
19970;DHT22;10146;47.754;9.566;2022-08-19T03:16:12;17.50;99.90
19970;DHT22;10146;47.754;9.566;2022-08-19T03:18:38;17.50;99.90
19970;DHT22;10146;47.754;9.566;2022-08-19T03:21:05;17.50;99.90
19970;DHT22;10146;47.754;9.566;2022-08-19T03:23:31;17.50;99.90
19970;DHT22;10146;47.754;9.566;2022-08-19T03:25:56;17.50;99.90
19970;DHT22;10146;47.754;9.566;2022-08-19T03:28:22;17.50;99.90
19970;DHT22;10146;47.754;9.566;2022-08-19T03:30:59;17.60;99.90
19970;DHT22;10146;47.754;9.566;2022-08-19T03:33:26;17.60;99.90
19970;DHT22;10146;47.754;9.566;2022-08-19T03:36:16;17.70;99.90
19970;DHT22;10146;47.754;9.566;2022-08-19T03:38:47;17.70;99.90
19970;DHT22;10146;47.754;9.566;2022-08-19T03:41:16;17.70;99.90
19970;DHT22;10146;47.754;9.566;2022-08-19T03:43:43;17.70;99.90
19970;DHT22;10146;47.754;9.566;2022-08-19T03:46:13;17.70;99.90
19970;DHT22;10146;47.754;9.566;2022-08-19T03:48:40;17.70;99.90
19970;DHT22;10146;47.754;9.566;2022-08-19T03:51:07;17.70;99.90
19970;DHT22;10146;47.754;9.566;2022-08-19T03:53:34;17.70;99.90
19970;DHT22;10146;47.754;9.566;2022-08-19T03:56:00;17.70;99.90
19970;DHT22;10146;47.754;9.566;2022-08-19T03:58:28;17.60;99.90
19970;DHT22;10146;47.754;9.566;2022-08-19T04:00:55;17.60;99.90
19970;DHT22;10146;47.754;9.566;2022-08-19T04:03:21;17.70;99.90
19970;DHT22;10146;47.754;9.566;2022-08-19T04:05:46;17.70;99.90
19970;DHT22;10146;47.754;9.566;2022-08-19T04:08:13;17.70;99.90
19970;DHT22;10146;47.754;9.566;2022-08-19T04:10:39;17.60;99.90
19970;DHT22;10146;47.754;9.566;2022-08-19T04:13:05;17.60;99.90
19970;DHT22;10146;47.754;9.566;2022-08-19T04:15:32;17.60;99.90
19970;DHT22;10146;47.754;9.566;2022-08-19T04:18:05;17.60;99.90
19970;DHT22;10146;47.754;9.566;2022-08-19T04:20:37;17.60;99.90
19970;DHT22;10146;47.754;9.566;2022-08-19T04:23:03;17.70;99.90
19970;DHT22;10146;47.754;9.566;2022-08-19T04:25:35;17.70;99.90
19970;DHT22;10146;47.754;9.566;2022-08-19T04:28:01;17.70;99.90
19970;DHT22;10146;47.754;9.566;2022-08-19T04:30:27;17.70;99.90
19970;DHT22;10146;47.754;9.566;2022-08-19T04:32:52;17.70;99.90
19970;DHT22;10146;47.754;9.566;2022-08-19T04:35:18;17.70;99.90
19970;DHT22;10146;47.754;9.566;2022-08-19T04:37:43;17.70;99.90
19970;DHT22;10146;47.754;9.566;2022-08-19T04:40:09;17.70;99.90
19970;DHT22;10146;47.754;9.566;2022-08-19T04:43:13;17.70;99.90
19970;DHT22;10146;47.754;9.566;2022-08-19T04:45:39;17.70;99.90
19970;DHT22;10146;47.754;9.566;2022-08-19T04:48:05;17.60;99.90
19970;DHT22;10146;47.754;9.566;2022-08-19T04:50:31;17.60;99.90
19970;DHT22;10146;47.754;9.566;2022-08-19T04:52:56;17.60;99.90
19970;DHT22;10146;47.754;9.566;2022-08-19T04:55:22;17.60;99.90
19970;DHT22;10146;47.754;9.566;2022-08-19T04:57:50;17.60;99.90
19970;DHT22;10146;47.754;9.566;2022-08-19T05:00:16;17.60;99.90
19970;DHT22;10146;47.754;9.566;2022-08-19T05:02:42;17.60;99.90
19970;DHT22;10146;47.754;9.566;2022-08-19T05:05:08;17.60;99.90
19970;DHT22;10146;47.754;9.566;2022-08-19T05:07:34;17.60;99.90
19970;DHT22;10146;47.754;9.566;2022-08-19T05:09:59;17.60;99.90
19970;DHT22;10146;47.754;9.566;2022-08-19T05:12:26;17.60;99.90
19970;DHT22;10146;47.754;9.566;2022-08-19T05:14:52;17.60;99.90
19970;DHT22;10146;47.754;9.566;2022-08-19T05:17:19;17.60;99.90
19970;DHT22;10146;47.754;9.566;2022-08-19T05:19:44;17.60;99.90
19970;DHT22;10146;47.754;9.566;2022-08-19T05:22:28;17.60;99.90
19970;DHT22;10146;47.754;9.566;2022-08-19T05:24:58;17.50;99.90
19970;DHT22;10146;47.754;9.566;2022-08-19T05:27:23;17.50;99.90
19970;DHT22;10146;47.754;9.566;2022-08-19T05:29:49;17.60;99.90
19970;DHT22;10146;47.754;9.566;2022-08-19T05:32:15;17.60;99.90
19970;DHT22;10146;47.754;9.566;2022-08-19T05:34:40;17.60;99.90
19970;DHT22;10146;47.754;9.566;2022-08-19T05:37:07;17.60;99.90
19970;DHT22;10146;47.754;9.566;2022-08-19T05:39:35;17.60;99.90
19970;DHT22;10146;47.754;9.566;2022-08-19T05:42:04;17.60;99.90
19970;DHT22;10146;47.754;9.566;2022-08-19T05:44:33;17.60;99.90
19970;DHT22;10146;47.754;9.566;2022-08-19T05:47:01;17.70;99.90
19970;DHT22;10146;47.754;9.566;2022-08-19T05:49:28;17.70;99.90
19970;DHT22;10146;47.754;9.566;2022-08-19T05:51:54;17.70;99.90
19970;DHT22;10146;47.754;9.566;2022-08-19T05:54:21;17.70;99.90
19970;DHT22;10146;47.754;9.566;2022-08-19T05:56:49;17.70;99.90
19970;DHT22;10146;47.754;9.566;2022-08-19T05:59:17;17.70;99.90
19970;DHT22;10146;47.754;9.566;2022-08-19T06:01:44;17.80;99.90
19970;DHT22;10146;47.754;9.566;2022-08-19T06:04:12;17.80;99.90
19970;DHT22;10146;47.754;9.566;2022-08-19T06:06:39;17.80;99.90
19970;DHT22;10146;47.754;9.566;2022-08-19T06:09:06;17.80;99.90
19970;DHT22;10146;47.754;9.566;2022-08-19T06:14:02;17.90;99.90
19970;DHT22;10146;47.754;9.566;2022-08-19T06:16:28;17.90;99.90
19970;DHT22;10146;47.754;9.566;2022-08-19T06:18:59;17.90;99.90
19970;DHT22;10146;47.754;9.566;2022-08-19T06:23:55;17.90;99.90
19970;DHT22;10146;47.754;9.566;2022-08-19T06:26:22;17.90;99.90
19970;DHT22;10146;47.754;9.566;2022-08-19T06:28:48;17.90;99.90
19970;DHT22;10146;47.754;9.566;2022-08-19T06:31:20;17.90;99.90
19970;DHT22;10146;47.754;9.566;2022-08-19T06:33:47;17.90;99.90
19970;DHT22;10146;47.754;9.566;2022-08-19T06:36:34;17.90;99.90
19970;DHT22;10146;47.754;9.566;2022-08-19T06:39:07;17.90;99.90
19970;DHT22;10146;47.754;9.566;2022-08-19T06:41:38;17.90;99.90
19970;DHT22;10146;47.754;9.566;2022-08-19T06:44:04;17.90;99.90
19970;DHT22;10146;47.754;9.566;2022-08-19T06:46:30;17.90;99.90
19970;DHT22;10146;47.754;9.566;2022-08-19T06:48:56;17.90;99.90
19970;DHT22;10146;47.754;9.566;2022-08-19T06:51:23;17.90;99.90
19970;DHT22;10146;47.754;9.566;2022-08-19T06:53:51;17.90;99.90
19970;DHT22;10146;47.754;9.566;2022-08-19T06:56:19;17.90;99.90
19970;DHT22;10146;47.754;9.566;2022-08-19T06:58:45;18.00;99.90
19970;DHT22;10146;47.754;9.566;2022-08-19T07:01:11;17.90;99.90
19970;DHT22;10146;47.754;9.566;2022-08-19T07:03:37;17.90;99.90
19970;DHT22;10146;47.754;9.566;2022-08-19T07:06:09;18.00;99.90
19970;DHT22;10146;47.754;9.566;2022-08-19T07:08:36;18.00;99.90
19970;DHT22;10146;47.754;9.566;2022-08-19T07:11:06;18.10;99.90
19970;DHT22;10146;47.754;9.566;2022-08-19T07:13:34;18.10;99.90
19970;DHT22;10146;47.754;9.566;2022-08-19T07:16:06;18.10;99.90
19970;DHT22;10146;47.754;9.566;2022-08-19T07:18:32;18.20;99.90
19970;DHT22;10146;47.754;9.566;2022-08-19T07:21:06;18.10;99.90
19970;DHT22;10146;47.754;9.566;2022-08-19T07:23:32;18.10;99.90
19970;DHT22;10146;47.754;9.566;2022-08-19T07:26:03;18.10;99.90
19970;DHT22;10146;47.754;9.566;2022-08-19T07:28:29;18.10;99.90
19970;DHT22;10146;47.754;9.566;2022-08-19T07:30:55;18.10;99.90
19970;DHT22;10146;47.754;9.566;2022-08-19T07:33:21;18.10;99.90
19970;DHT22;10146;47.754;9.566;2022-08-19T07:35:46;18.10;99.90
19970;DHT22;10146;47.754;9.566;2022-08-19T07:38:12;18.10;99.90
19970;DHT22;10146;47.754;9.566;2022-08-19T07:40:38;18.10;99.90
19970;DHT22;10146;47.754;9.566;2022-08-19T07:43:06;18.20;99.90
19970;DHT22;10146;47.754;9.566;2022-08-19T07:45:32;18.20;99.90
19970;DHT22;10146;47.754;9.566;2022-08-19T07:47:58;18.20;99.90
19970;DHT22;10146;47.754;9.566;2022-08-19T07:50:24;18.20;99.90
19970;DHT22;10146;47.754;9.566;2022-08-19T07:52:50;18.20;99.90
19970;DHT22;10146;47.754;9.566;2022-08-19T07:55:21;18.30;99.90
19970;DHT22;10146;47.754;9.566;2022-08-19T07:57:47;18.30;99.90
19970;DHT22;10146;47.754;9.566;2022-08-19T08:00:13;18.30;99.90
19970;DHT22;10146;47.754;9.566;2022-08-19T08:02:39;18.30;99.90
19970;DHT22;10146;47.754;9.566;2022-08-19T08:05:08;18.30;99.90
19970;DHT22;10146;47.754;9.566;2022-08-19T08:07:52;18.30;99.90
19970;DHT22;10146;47.754;9.566;2022-08-19T08:10:36;18.30;99.90
19970;DHT22;10146;47.754;9.566;2022-08-19T08:13:02;18.40;99.90
19970;DHT22;10146;47.754;9.566;2022-08-19T08:15:30;18.40;99.90
19970;DHT22;10146;47.754;9.566;2022-08-19T08:17:56;18.40;99.90
19970;DHT22;10146;47.754;9.566;2022-08-19T08:20:23;18.40;99.90
19970;DHT22;10146;47.754;9.566;2022-08-19T08:22:49;18.30;99.90
19970;DHT22;10146;47.754;9.566;2022-08-19T08:25:34;18.40;99.90
19970;DHT22;10146;47.754;9.566;2022-08-19T08:28:01;18.30;99.90
19970;DHT22;10146;47.754;9.566;2022-08-19T08:30:28;18.30;99.90
19970;DHT22;10146;47.754;9.566;2022-08-19T08:32:54;18.40;99.90
19970;DHT22;10146;47.754;9.566;2022-08-19T08:35:22;18.40;99.90
19970;DHT22;10146;47.754;9.566;2022-08-19T08:37:49;18.40;99.90
19970;DHT22;10146;47.754;9.566;2022-08-19T08:40:29;18.30;99.90
19970;DHT22;10146;47.754;9.566;2022-08-19T08:45:49;18.40;99.90
19970;DHT22;10146;47.754;9.566;2022-08-19T08:48:22;18.40;99.90
19970;DHT22;10146;47.754;9.566;2022-08-19T08:50:51;18.30;99.90
19970;DHT22;10146;47.754;9.566;2022-08-19T08:53:19;18.30;99.90
19970;DHT22;10146;47.754;9.566;2022-08-19T08:55:46;18.30;99.90
19970;DHT22;10146;47.754;9.566;2022-08-19T08:58:20;18.30;99.90
19970;DHT22;10146;47.754;9.566;2022-08-19T09:00:51;18.30;99.90
19970;DHT22;10146;47.754;9.566;2022-08-19T09:03:27;18.20;99.90
19970;DHT22;10146;47.754;9.566;2022-08-19T09:06:07;18.20;99.90
19970;DHT22;10146;47.754;9.566;2022-08-19T09:09:04;18.20;99.90
19970;DHT22;10146;47.754;9.566;2022-08-19T09:11:47;18.10;99.90
19970;DHT22;10146;47.754;9.566;2022-08-19T09:14:45;18.10;99.90
19970;DHT22;10146;47.754;9.566;2022-08-19T09:17:13;18.10;99.90
19970;DHT22;10146;47.754;9.566;2022-08-19T09:22:15;18.10;99.90
19970;DHT22;10146;47.754;9.566;2022-08-19T09:24:41;18.10;99.90
19970;DHT22;10146;47.754;9.566;2022-08-19T09:27:06;18.10;99.90
19970;DHT22;10146;47.754;9.566;2022-08-19T09:29:32;18.10;99.90
19970;DHT22;10146;47.754;9.566;2022-08-19T09:31:58;18.10;99.90
19970;DHT22;10146;47.754;9.566;2022-08-19T09:34:23;18.10;99.90
19970;DHT22;10146;47.754;9.566;2022-08-19T09:36:49;18.10;99.90
19970;DHT22;10146;47.754;9.566;2022-08-19T09:39:20;18.10;99.90
19970;DHT22;10146;47.754;9.566;2022-08-19T09:41:46;18.10;99.90
19970;DHT22;10146;47.754;9.566;2022-08-19T09:44:12;18.00;99.90
19970;DHT22;10146;47.754;9.566;2022-08-19T09:46:38;18.00;99.90
19970;DHT22;10146;47.754;9.566;2022-08-19T09:49:03;18.00;99.90
19970;DHT22;10146;47.754;9.566;2022-08-19T09:51:32;18.10;99.90
19970;DHT22;10146;47.754;9.566;2022-08-19T09:54:02;18.10;99.90
19970;DHT22;10146;47.754;9.566;2022-08-19T09:56:29;18.10;99.90
19970;DHT22;10146;47.754;9.566;2022-08-19T09:59:00;18.10;99.90
19970;DHT22;10146;47.754;9.566;2022-08-19T10:01:28;18.10;99.90
19970;DHT22;10146;47.754;9.566;2022-08-19T10:03:56;18.10;99.90
19970;DHT22;10146;47.754;9.566;2022-08-19T10:06:23;18.10;99.90
19970;DHT22;10146;47.754;9.566;2022-08-19T10:08:51;18.20;99.90
19970;DHT22;10146;47.754;9.566;2022-08-19T10:11:18;18.20;99.90
19970;DHT22;10146;47.754;9.566;2022-08-19T10:13:44;18.20;99.90
19970;DHT22;10146;47.754;9.566;2022-08-19T10:16:16;18.30;99.90
19970;DHT22;10146;47.754;9.566;2022-08-19T10:18:44;18.30;99.90
19970;DHT22;10146;47.754;9.566;2022-08-19T10:21:13;18.30;99.90
19970;DHT22;10146;47.754;9.566;2022-08-19T10:23:40;18.30;99.90
19970;DHT22;10146;47.754;9.566;2022-08-19T10:26:11;18.30;99.90
19970;DHT22;10146;47.754;9.566;2022-08-19T10:28:37;18.30;99.90
19970;DHT22;10146;47.754;9.566;2022-08-19T10:31:05;18.30;99.90
19970;DHT22;10146;47.754;9.566;2022-08-19T10:33:32;18.30;99.90
19970;DHT22;10146;47.754;9.566;2022-08-19T10:36:09;18.30;99.90
19970;DHT22;10146;47.754;9.566;2022-08-19T10:38:36;18.40;99.90
19970;DHT22;10146;47.754;9.566;2022-08-19T10:41:11;18.40;99.90
19970;DHT22;10146;47.754;9.566;2022-08-19T10:43:37;18.40;99.90
19970;DHT22;10146;47.754;9.566;2022-08-19T10:46:07;18.40;99.90
19970;DHT22;10146;47.754;9.566;2022-08-19T10:48:33;18.40;99.90
19970;DHT22;10146;47.754;9.566;2022-08-19T10:50:59;18.40;99.90
19970;DHT22;10146;47.754;9.566;2022-08-19T10:53:44;18.30;99.90
19970;DHT22;10146;47.754;9.566;2022-08-19T10:56:09;18.40;99.90
19970;DHT22;10146;47.754;9.566;2022-08-19T10:58:53;18.30;99.90
19970;DHT22;10146;47.754;9.566;2022-08-19T11:01:19;18.40;99.90
19970;DHT22;10146;47.754;9.566;2022-08-19T11:03:45;18.40;99.90
19970;DHT22;10146;47.754;9.566;2022-08-19T11:06:11;18.40;99.90
19970;DHT22;10146;47.754;9.566;2022-08-19T11:08:37;18.40;99.90
19970;DHT22;10146;47.754;9.566;2022-08-19T11:11:04;18.30;99.90
19970;DHT22;10146;47.754;9.566;2022-08-19T11:13:34;18.30;99.90
19970;DHT22;10146;47.754;9.566;2022-08-19T11:16:14;18.40;99.90
19970;DHT22;10146;47.754;9.566;2022-08-19T11:18:43;18.40;99.90
19970;DHT22;10146;47.754;9.566;2022-08-19T11:21:13;18.40;99.90
19970;DHT22;10146;47.754;9.566;2022-08-19T11:23:40;18.40;99.90
19970;DHT22;10146;47.754;9.566;2022-08-19T11:26:06;18.40;99.90
19970;DHT22;10146;47.754;9.566;2022-08-19T11:28:32;18.40;99.90
19970;DHT22;10146;47.754;9.566;2022-08-19T11:30:57;18.50;99.90
19970;DHT22;10146;47.754;9.566;2022-08-19T11:33:23;18.50;99.90
19970;DHT22;10146;47.754;9.566;2022-08-19T11:35:51;18.40;99.90
19970;DHT22;10146;47.754;9.566;2022-08-19T11:38:17;18.40;99.90
19970;DHT22;10146;47.754;9.566;2022-08-19T11:40:43;18.40;99.90
19970;DHT22;10146;47.754;9.566;2022-08-19T11:43:09;18.50;99.90
19970;DHT22;10146;47.754;9.566;2022-08-19T11:45:35;18.50;99.90
19970;DHT22;10146;47.754;9.566;2022-08-19T11:48:01;18.50;99.90
19970;DHT22;10146;47.754;9.566;2022-08-19T11:50:27;18.50;99.90
19970;DHT22;10146;47.754;9.566;2022-08-19T11:52:56;18.50;99.90
19970;DHT22;10146;47.754;9.566;2022-08-19T11:55:22;18.50;99.90
19970;DHT22;10146;47.754;9.566;2022-08-19T11:57:48;18.50;99.90
19970;DHT22;10146;47.754;9.566;2022-08-19T12:00:14;18.60;99.90
19970;DHT22;10146;47.754;9.566;2022-08-19T12:02:40;18.60;99.90
19970;DHT22;10146;47.754;9.566;2022-08-19T12:05:06;18.60;99.90
19970;DHT22;10146;47.754;9.566;2022-08-19T12:07:33;18.70;99.90
19970;DHT22;10146;47.754;9.566;2022-08-19T12:10:00;18.70;99.90
19970;DHT22;10146;47.754;9.566;2022-08-19T12:12:26;18.70;99.90
19970;DHT22;10146;47.754;9.566;2022-08-19T12:14:52;18.70;99.90
19970;DHT22;10146;47.754;9.566;2022-08-19T12:17:23;18.70;99.90
19970;DHT22;10146;47.754;9.566;2022-08-19T12:19:49;18.70;99.90
19970;DHT22;10146;47.754;9.566;2022-08-19T12:22:15;18.70;99.90
19970;DHT22;10146;47.754;9.566;2022-08-19T12:24:40;18.80;99.90
19970;DHT22;10146;47.754;9.566;2022-08-19T12:27:06;18.80;99.90
19970;DHT22;10146;47.754;9.566;2022-08-19T12:29:31;18.80;99.90
19970;DHT22;10146;47.754;9.566;2022-08-19T12:31:58;18.80;99.90
19970;DHT22;10146;47.754;9.566;2022-08-19T12:34:32;18.80;99.90
19970;DHT22;10146;47.754;9.566;2022-08-19T12:36:59;18.80;99.90
19970;DHT22;10146;47.754;9.566;2022-08-19T12:39:26;18.80;99.90
19970;DHT22;10146;47.754;9.566;2022-08-19T12:41:52;18.80;99.90
19970;DHT22;10146;47.754;9.566;2022-08-19T12:44:18;18.80;99.90
19970;DHT22;10146;47.754;9.566;2022-08-19T12:46:43;18.80;99.90
19970;DHT22;10146;47.754;9.566;2022-08-19T12:49:10;18.90;99.90
19970;DHT22;10146;47.754;9.566;2022-08-19T12:51:35;18.90;99.90
19970;DHT22;10146;47.754;9.566;2022-08-19T12:54:01;18.90;99.90
19970;DHT22;10146;47.754;9.566;2022-08-19T12:56:27;18.90;99.90
19970;DHT22;10146;47.754;9.566;2022-08-19T12:58:52;18.80;99.90
19970;DHT22;10146;47.754;9.566;2022-08-19T13:01:18;18.90;99.90
19970;DHT22;10146;47.754;9.566;2022-08-19T13:03:46;18.90;99.90
19970;DHT22;10146;47.754;9.566;2022-08-19T13:06:12;19.00;99.90
19970;DHT22;10146;47.754;9.566;2022-08-19T13:08:38;19.00;99.90
19970;DHT22;10146;47.754;9.566;2022-08-19T13:11:21;19.00;99.90
19970;DHT22;10146;47.754;9.566;2022-08-19T13:13:50;19.00;99.90
19970;DHT22;10146;47.754;9.566;2022-08-19T13:16:17;19.00;99.90
19970;DHT22;10146;47.754;9.566;2022-08-19T13:18:45;19.00;99.90
19970;DHT22;10146;47.754;9.566;2022-08-19T13:21:13;19.10;99.90
19970;DHT22;10146;47.754;9.566;2022-08-19T13:23:40;19.00;99.90
19970;DHT22;10146;47.754;9.566;2022-08-19T13:26:07;19.00;99.90
19970;DHT22;10146;47.754;9.566;2022-08-19T13:28:34;18.90;99.90
19970;DHT22;10146;47.754;9.566;2022-08-19T13:31:20;18.90;99.90
19970;DHT22;10146;47.754;9.566;2022-08-19T13:34:06;18.80;99.90
19970;DHT22;10146;47.754;9.566;2022-08-19T13:36:35;18.80;99.90
19970;DHT22;10146;47.754;9.566;2022-08-19T13:39:01;18.90;99.90
19970;DHT22;10146;47.754;9.566;2022-08-19T13:41:27;18.90;99.90
19970;DHT22;10146;47.754;9.566;2022-08-19T13:43:53;18.80;99.90
19970;DHT22;10146;47.754;9.566;2022-08-19T13:46:20;18.80;99.90
19970;DHT22;10146;47.754;9.566;2022-08-19T13:48:46;18.80;99.90
19970;DHT22;10146;47.754;9.566;2022-08-19T13:51:13;18.90;99.90
19970;DHT22;10146;47.754;9.566;2022-08-19T13:53:42;18.80;99.90
19970;DHT22;10146;47.754;9.566;2022-08-19T13:56:16;18.90;99.90
19970;DHT22;10146;47.754;9.566;2022-08-19T13:58:42;18.90;99.90
19970;DHT22;10146;47.754;9.566;2022-08-19T14:01:09;18.90;99.90
19970;DHT22;10146;47.754;9.566;2022-08-19T14:03:36;18.90;99.90
19970;DHT22;10146;47.754;9.566;2022-08-19T14:06:02;18.90;99.90
19970;DHT22;10146;47.754;9.566;2022-08-19T14:08:28;18.80;99.90
19970;DHT22;10146;47.754;9.566;2022-08-19T14:10:58;18.80;99.90
19970;DHT22;10146;47.754;9.566;2022-08-19T14:13:23;18.80;99.90
19970;DHT22;10146;47.754;9.566;2022-08-19T14:15:50;18.90;99.90
19970;DHT22;10146;47.754;9.566;2022-08-19T14:18:17;18.80;99.90
19970;DHT22;10146;47.754;9.566;2022-08-19T14:20:43;18.80;99.90
19970;DHT22;10146;47.754;9.566;2022-08-19T14:23:09;18.90;99.90
19970;DHT22;10146;47.754;9.566;2022-08-19T14:25:36;18.90;99.90
19970;DHT22;10146;47.754;9.566;2022-08-19T14:28:01;18.90;99.90
19970;DHT22;10146;47.754;9.566;2022-08-19T14:30:31;18.90;99.90
19970;DHT22;10146;47.754;9.566;2022-08-19T14:32:59;18.90;99.90
19970;DHT22;10146;47.754;9.566;2022-08-19T14:35:26;18.80;99.90
19970;DHT22;10146;47.754;9.566;2022-08-19T14:37:53;18.80;99.90
19970;DHT22;10146;47.754;9.566;2022-08-19T14:40:25;18.90;99.90
19970;DHT22;10146;47.754;9.566;2022-08-19T14:42:56;18.90;99.90
19970;DHT22;10146;47.754;9.566;2022-08-19T14:45:25;18.90;99.90
19970;DHT22;10146;47.754;9.566;2022-08-19T14:47:51;18.90;99.90
19970;DHT22;10146;47.754;9.566;2022-08-19T14:50:18;18.90;99.90
19970;DHT22;10146;47.754;9.566;2022-08-19T14:52:47;18.90;99.90
19970;DHT22;10146;47.754;9.566;2022-08-19T14:55:14;18.80;99.90
19970;DHT22;10146;47.754;9.566;2022-08-19T14:57:41;18.80;99.90
19970;DHT22;10146;47.754;9.566;2022-08-19T15:00:07;18.90;99.90
19970;DHT22;10146;47.754;9.566;2022-08-19T15:02:37;18.80;99.90
19970;DHT22;10146;47.754;9.566;2022-08-19T15:05:03;18.80;99.90
19970;DHT22;10146;47.754;9.566;2022-08-19T15:07:29;18.80;99.90
19970;DHT22;10146;47.754;9.566;2022-08-19T15:09:54;18.80;99.90
19970;DHT22;10146;47.754;9.566;2022-08-19T15:12:20;18.80;99.90
19970;DHT22;10146;47.754;9.566;2022-08-19T15:14:47;18.80;99.90
19970;DHT22;10146;47.754;9.566;2022-08-19T15:17:16;18.80;99.90
19970;DHT22;10146;47.754;9.566;2022-08-19T15:19:42;18.80;99.90
19970;DHT22;10146;47.754;9.566;2022-08-19T15:22:08;18.80;99.90
19970;DHT22;10146;47.754;9.566;2022-08-19T15:24:33;18.80;99.90
19970;DHT22;10146;47.754;9.566;2022-08-19T15:27:01;18.70;99.90
19970;DHT22;10146;47.754;9.566;2022-08-19T15:29:26;18.70;99.90
19970;DHT22;10146;47.754;9.566;2022-08-19T15:31:53;18.70;99.90
19970;DHT22;10146;47.754;9.566;2022-08-19T15:34:21;18.70;99.90
19970;DHT22;10146;47.754;9.566;2022-08-19T15:36:47;18.70;99.90
19970;DHT22;10146;47.754;9.566;2022-08-19T15:39:13;18.70;99.90
19970;DHT22;10146;47.754;9.566;2022-08-19T15:41:39;18.80;99.90
19970;DHT22;10146;47.754;9.566;2022-08-19T15:44:10;18.70;99.90
19970;DHT22;10146;47.754;9.566;2022-08-19T15:46:38;18.70;99.90